createdAt,value
2022-11-06T00:00:36.471Z,18.6
2022-11-06T00:05:43.980Z,18.5
2022-11-06T00:10:50.398Z,18.5
2022-11-06T00:15:56.303Z,18.5
2022-11-06T00:21:03.674Z,18.5
2022-11-06T00:26:10.992Z,18.4
2022-11-06T00:31:37.864Z,18.4
2022-11-06T00:36:43.538Z,18.4
2022-11-06T00:42:04.744Z,18.5
2022-11-06T00:47:26.519Z,18.4
2022-11-06T00:52:50.077Z,18.4
2022-11-06T00:58:12.060Z,18.4
2022-11-06T01:03:35.345Z,18.4
2022-11-06T01:08:57.371Z,18.4
2022-11-06T01:14:46.978Z,18.4
2022-11-06T01:20:08.406Z,18.4
2022-11-06T01:25:30.470Z,18.4
2022-11-06T01:31:35.668Z,18.4
2022-11-06T01:36:42.285Z,18.4
2022-11-06T01:42:03.800Z,18.4
2022-11-06T01:47:45.885Z,18.4
2022-11-06T01:53:07.086Z,18.3
2022-11-06T01:58:30.459Z,18.4
2022-11-06T02:03:54.384Z,18.3
2022-11-06T02:09:00.046Z,18.3
2022-11-06T02:14:37.457Z,18.4
2022-11-06T02:20:14.079Z,18.3
2022-11-06T02:25:50.281Z,18.3
2022-11-06T02:31:12.428Z,18.3
2022-11-06T02:36:34.420Z,18.3
2022-11-06T02:41:55.988Z,18.3
2022-11-06T02:47:33.435Z,18.3
2022-11-06T02:53:10.889Z,18.2
2022-11-06T02:58:32.464Z,18.2
2022-11-06T03:03:56.064Z,18.2
2022-11-06T03:09:18.789Z,18.2
2022-11-06T03:14:55.500Z,18.1
2022-11-06T03:20:33.173Z,18.1
2022-11-06T03:26:11.160Z,18.1
2022-11-06T03:31:22.976Z,18
2022-11-06T03:36:44.143Z,18.1
2022-11-06T03:42:22.100Z,18
2022-11-06T03:47:57.816Z,18
2022-11-06T03:53:34.445Z,17.9
2022-11-06T03:59:12.953Z,18
2022-11-06T04:04:51.005Z,17.9
2022-11-06T04:10:13.570Z,17.9
2022-11-06T04:15:35.455Z,17.9
2022-11-06T04:20:41.838Z,17.9
2022-11-06T04:26:19.409Z,17.9
2022-11-06T04:31:56.526Z,17.9
2022-11-06T04:37:04.838Z,17.9
2022-11-06T04:42:26.894Z,17.8
2022-11-06T04:47:49.143Z,17.9
2022-11-06T04:53:10.820Z,17.8
2022-11-06T04:58:57.824Z,17.8
2022-11-06T05:04:19.929Z,17.8
2022-11-06T05:10:01.118Z,17.8
2022-11-06T05:15:38.169Z,17.8
2022-11-06T05:21:16.525Z,17.7
2022-11-06T05:26:58.009Z,17.7
2022-11-06T05:32:37.239Z,17.6
2022-11-06T05:38:14.320Z,17.6
2022-11-06T05:43:50.613Z,17.6
2022-11-06T05:49:53.121Z,17.6
2022-11-06T05:55:31.964Z,17.6
2022-11-06T06:00:53.188Z,17.6
2022-11-06T06:06:31.366Z,17.6
2022-11-06T06:12:09.573Z,17.6
2022-11-06T06:17:53.566Z,17.6
2022-11-06T06:23:31.387Z,17.5
2022-11-06T06:29:00.575Z,17.6
2022-11-06T06:34:37.814Z,17.6
2022-11-06T06:40:05.719Z,17.5
2022-11-06T06:45:50.249Z,17.5
2022-11-06T06:51:28.127Z,17.4
2022-11-06T06:57:05.767Z,17.5
2022-11-06T07:02:45.496Z,17.4
2022-11-06T07:08:14.311Z,17.5
2022-11-06T07:13:53.131Z,17.5
2022-11-06T07:19:30.691Z,17.5
2022-11-06T07:25:01.191Z,17.4
2022-11-06T07:30:23.959Z,17.4
2022-11-06T07:35:45.950Z,17.4
2022-11-06T07:41:08.103Z,17.4
2022-11-06T07:46:36.020Z,17.4
2022-11-06T07:51:48.828Z,17.4
2022-11-06T07:57:10.872Z,17.4
2022-11-06T08:02:37.997Z,17.4
2022-11-06T08:07:45.131Z,17.4
2022-11-06T08:13:08.323Z,17.4
2022-11-06T08:18:34.166Z,17.4
2022-11-06T08:23:57.678Z,17.4
2022-11-06T08:29:26.559Z,17.4
2022-11-06T08:34:50.551Z,17.4
2022-11-06T08:39:59.450Z,17.4
2022-11-06T08:45:07.728Z,17.4
2022-11-06T08:50:33.272Z,17.5
2022-11-06T08:56:14.314Z,17.4
2022-11-06T09:02:00.115Z,17.7
2022-11-06T09:07:45.842Z,17.9
2022-11-06T09:13:30.880Z,17.8
2022-11-06T09:18:59.220Z,17.6
2022-11-06T09:24:43.530Z,17.7
2022-11-06T09:30:31.263Z,23.8
2022-11-06T09:36:01.178Z,25.3
2022-11-06T09:41:46.385Z,30.2
2022-11-06T09:47:57.634Z,31.6
2022-11-06T09:53:39.905Z,32.8
2022-11-06T09:59:25.743Z,33.8
2022-11-06T10:05:12.102Z,34.9
2022-11-06T10:10:50.213Z,35.7
2022-11-06T10:16:27.653Z,35.9
2022-11-06T10:22:07.575Z,35.9
2022-11-06T10:27:45.558Z,36.4
2022-11-06T10:33:23.406Z,37
2022-11-06T10:39:05.143Z,37.1
2022-11-06T10:44:41.468Z,36.5
2022-11-06T10:50:24.564Z,34.8
2022-11-06T10:56:05.509Z,34.9
2022-11-06T11:01:45.782Z,33
2022-11-06T11:07:30.995Z,32.1
2022-11-06T11:13:07.060Z,35
2022-11-06T11:18:30.901Z,37.8
2022-11-06T11:23:56.919Z,38.4
2022-11-06T11:29:21.646Z,38.9
2022-11-06T11:34:48.378Z,39.4
2022-11-06T11:40:13.486Z,39
2022-11-06T11:45:36.445Z,38.1
2022-11-06T11:51:18.032Z,37.3
2022-11-06T11:57:35.174Z,36.7
2022-11-06T12:03:17.816Z,34.9
2022-11-06T12:08:56.114Z,38.3
2022-11-06T12:14:18.128Z,39.3
2022-11-06T12:19:48.056Z,38.9
2022-11-06T12:25:25.656Z,38.9
2022-11-06T12:31:03.302Z,38.7
2022-11-06T12:37:09.899Z,37.9
2022-11-06T12:42:53.677Z,36.1
2022-11-06T12:48:33.383Z,36.2
2022-11-06T12:53:55.900Z,35.9
2022-11-06T12:59:18.047Z,34.9
2022-11-06T13:04:58.138Z,34.8
2022-11-06T13:10:23.102Z,33.4
2022-11-06T13:16:01.828Z,33.3
2022-11-06T13:21:40.483Z,36.9
2022-11-06T13:27:20.020Z,37.6
2022-11-06T13:32:58.048Z,36.3
2022-11-06T13:38:35.105Z,35
2022-11-06T13:43:57.112Z,34.3
2022-11-06T13:49:40.389Z,36.2
2022-11-06T13:54:33.101Z,37.1
2022-11-06T13:59:57.281Z,37
2022-11-06T14:05:42.767Z,36.4
2022-11-06T14:11:20.344Z,35.4
2022-11-06T14:16:58.001Z,36.4
2022-11-06T14:22:37.348Z,36.7
2022-11-06T14:28:20.613Z,36.8
2022-11-06T14:34:33.593Z,35.5
2022-11-06T14:40:00.704Z,35.3
2022-11-06T14:45:43.325Z,36.3
2022-11-06T14:51:23.564Z,35.1
2022-11-06T14:57:02.891Z,34.2
2022-11-06T15:02:42.859Z,36.3
2022-11-06T15:08:53.900Z,36.2
2022-11-06T15:14:41.703Z,35.1
2022-11-06T15:20:03.229Z,36.7
2022-11-06T15:24:54.960Z,35.4
2022-11-06T15:30:32.680Z,36.2
2022-11-06T15:35:55.113Z,34.2
2022-11-06T15:41:24.197Z,33.4
2022-11-06T15:47:02.291Z,32.9
2022-11-06T15:52:40.132Z,36.7
2022-11-06T15:58:30.779Z,38.1
2022-11-06T16:04:14.611Z,38.2
2022-11-06T16:09:53.812Z,37.8
2022-11-06T16:15:37.907Z,36.1
2022-11-06T16:21:20.395Z,36.4
2022-11-06T16:26:32.828Z,34.6
2022-11-06T16:31:30.590Z,33.8
2022-11-06T16:37:12.330Z,33.1
2022-11-06T16:43:24.955Z,32.2
2022-11-06T16:49:02.771Z,31
2022-11-06T16:54:25.789Z,30.1
2022-11-06T16:59:48.421Z,29.4
2022-11-06T17:05:16.121Z,28.9
2022-11-06T17:10:38.468Z,28.4
2022-11-06T17:16:00.421Z,28
2022-11-06T17:21:38.411Z,27.6
2022-11-06T17:27:24.783Z,27.4
2022-11-06T17:32:47.297Z,27.1
2022-11-06T17:38:09.854Z,26.9
2022-11-06T17:43:47.615Z,26.8
2022-11-06T17:48:54.639Z,26.6
2022-11-06T17:54:23.253Z,26.2
2022-11-06T17:59:51.056Z,25.9
2022-11-06T18:06:05.325Z,25.6
2022-11-06T18:11:42.818Z,25.3
2022-11-06T18:17:20.313Z,24.9
2022-11-06T18:21:55.970Z,24.5
2022-11-06T18:26:47.530Z,24.3
2022-11-06T18:32:13.592Z,24
2022-11-06T18:37:56.821Z,23.8
2022-11-06T18:43:38.771Z,23.6
2022-11-06T18:49:04.215Z,23.4
2022-11-06T18:55:31.345Z,23.2
2022-11-06T19:01:17.087Z,23
2022-11-06T19:06:55.891Z,22.9
2022-11-06T19:12:23.446Z,22.8
2022-11-06T19:18:00.888Z,22.6
2022-11-06T19:23:35.470Z,22.5
2022-11-06T19:29:42.398Z,22.4
2022-11-06T19:35:22.325Z,22.3
2022-11-06T19:40:43.295Z,22.1
2022-11-06T19:46:25.891Z,22.1
2022-11-06T19:53:16.655Z,22
2022-11-06T19:59:58.381Z,21.9
2022-11-06T20:05:21.691Z,21.8
2022-11-06T20:10:51.246Z,21.8
2022-11-06T20:16:31.174Z,21.7
2022-11-06T20:21:59.260Z,21.6
2022-11-06T20:27:27.639Z,21.6
2022-11-06T20:33:08.471Z,21.5
2022-11-06T20:38:46.826Z,21.4
2022-11-06T20:44:27.505Z,21.4
2022-11-06T20:49:51.505Z,21.3
2022-11-06T20:56:10.550Z,21.3
2022-11-06T21:01:49.163Z,21.2
2022-11-06T21:06:56.564Z,21.2
2022-11-06T21:17:41.644Z,21.1
2022-11-06T21:23:08.884Z,21.1
2022-11-06T21:28:33.744Z,21
2022-11-06T21:34:03.352Z,21
2022-11-06T21:39:36.127Z,20.9
2022-11-06T21:44:59.674Z,20.9
2022-11-06T21:50:32.602Z,20.9
2022-11-06T21:55:55.003Z,20.9
2022-11-06T22:01:05.179Z,20.8
2022-11-06T22:06:44.385Z,20.8
2022-11-06T22:12:28.401Z,20.8
2022-11-06T22:17:51.085Z,20.8
2022-11-06T22:22:57.779Z,20.8
2022-11-06T22:30:46.548Z,20.8
2022-11-06T22:35:53.644Z,20.7
2022-11-06T22:41:31.758Z,20.7
2022-11-06T22:47:15.194Z,20.6
2022-11-06T22:52:37.314Z,20.6
2022-11-06T22:58:15.170Z,20.6
2022-11-06T23:03:57.053Z,20.6
2022-11-06T23:09:36.731Z,20.6
2022-11-06T23:15:16.141Z,20.6
2022-11-06T23:20:37.689Z,20.5
2022-11-06T23:25:45.223Z,20.5
2022-11-06T23:31:10.265Z,20.4
2022-11-06T23:36:24.324Z,20.4
2022-11-06T23:41:46.682Z,20.4
2022-11-06T23:47:09.168Z,20.4
2022-11-06T23:52:33.264Z,20.3
2022-11-06T23:57:55.648Z,20.3
